sensor_id;sensor_type;location;lat;lon;timestamp;P1;durP1;ratioP1;P2;durP2;ratioP2
18316;SDS011;9284;52.298;21.164;2022-12-07T04:09:00;18.67;;;9.50;;
18316;SDS011;9284;52.298;21.164;2022-12-07T04:11:28;18.53;;;9.27;;
18316;SDS011;9284;52.298;21.164;2022-12-07T04:13:56;16.87;;;9.37;;
18316;SDS011;9284;52.298;21.164;2022-12-07T04:16:42;17.50;;;8.53;;
18316;SDS011;9284;52.298;21.164;2022-12-07T04:19:10;17.47;;;8.97;;
18316;SDS011;9284;52.298;21.164;2022-12-07T04:21:38;19.03;;;9.60;;
18316;SDS011;9284;52.298;21.164;2022-12-07T04:24:08;17.87;;;9.07;;
18316;SDS011;9284;52.298;21.164;2022-12-07T04:26:36;22.43;;;10.10;;
18316;SDS011;9284;52.298;21.164;2022-12-07T04:29:05;18.83;;;9.17;;
18316;SDS011;9284;52.298;21.164;2022-12-07T04:31:33;22.07;;;9.73;;
18316;SDS011;9284;52.298;21.164;2022-12-07T04:34:02;20.53;;;9.33;;
18316;SDS011;9284;52.298;21.164;2022-12-07T04:36:31;20.20;;;10.40;;
18316;SDS011;9284;52.298;21.164;2022-12-07T04:39:00;17.80;;;8.90;;
18316;SDS011;9284;52.298;21.164;2022-12-07T04:41:29;17.63;;;8.73;;
18316;SDS011;9284;52.298;21.164;2022-12-07T04:43:59;23.30;;;10.67;;
18316;SDS011;9284;52.298;21.164;2022-12-07T04:46:29;19.53;;;9.73;;
18316;SDS011;9284;52.298;21.164;2022-12-07T04:48:58;17.10;;;9.17;;
18316;SDS011;9284;52.298;21.164;2022-12-07T04:51:28;19.47;;;9.23;;
18316;SDS011;9284;52.298;21.164;2022-12-07T04:53:56;16.20;;;8.87;;
18316;SDS011;9284;52.298;21.164;2022-12-07T04:56:25;20.37;;;9.30;;
18316;SDS011;9284;52.298;21.164;2022-12-07T04:58:54;19.80;;;10.30;;
18316;SDS011;9284;52.298;21.164;2022-12-07T05:01:23;28.60;;;14.10;;
18316;SDS011;9284;52.298;21.164;2022-12-07T05:03:51;35.30;;;15.80;;
18316;SDS011;9284;52.298;21.164;2022-12-07T05:06:19;18.33;;;10.60;;
18316;SDS011;9284;52.298;21.164;2022-12-07T05:08:48;18.50;;;9.40;;
18316;SDS011;9284;52.298;21.164;2022-12-07T05:11:16;19.27;;;9.97;;
18316;SDS011;9284;52.298;21.164;2022-12-07T05:14:00;18.57;;;9.43;;
18316;SDS011;9284;52.298;21.164;2022-12-07T05:16:28;16.83;;;8.90;;
18316;SDS011;9284;52.298;21.164;2022-12-07T05:18:57;20.03;;;9.33;;
18316;SDS011;9284;52.298;21.164;2022-12-07T05:21:25;17.80;;;9.47;;
18316;SDS011;9284;52.298;21.164;2022-12-07T05:23:53;24.67;;;11.17;;
18316;SDS011;9284;52.298;21.164;2022-12-07T05:26:21;21.53;;;10.67;;
18316;SDS011;9284;52.298;21.164;2022-12-07T05:28:50;25.20;;;11.90;;
18316;SDS011;9284;52.298;21.164;2022-12-07T05:31:20;26.27;;;12.37;;
18316;SDS011;9284;52.298;21.164;2022-12-07T05:33:49;26.83;;;13.07;;
18316;SDS011;9284;52.298;21.164;2022-12-07T05:36:17;26.13;;;11.13;;
18316;SDS011;9284;52.298;21.164;2022-12-07T05:38:46;22.33;;;11.20;;
18316;SDS011;9284;52.298;21.164;2022-12-07T05:41:14;21.27;;;10.43;;
18316;SDS011;9284;52.298;21.164;2022-12-07T05:44:01;19.27;;;10.47;;
18316;SDS011;9284;52.298;21.164;2022-12-07T05:46:31;20.17;;;9.77;;
18316;SDS011;9284;52.298;21.164;2022-12-07T05:48:59;22.30;;;11.93;;
18316;SDS011;9284;52.298;21.164;2022-12-07T05:51:28;26.40;;;12.17;;
18316;SDS011;9284;52.298;21.164;2022-12-07T05:53:56;28.83;;;14.03;;
18316;SDS011;9284;52.298;21.164;2022-12-07T05:56:25;26.73;;;12.10;;
18316;SDS011;9284;52.298;21.164;2022-12-07T05:58:53;28.33;;;11.57;;
18316;SDS011;9284;52.298;21.164;2022-12-07T06:01:40;25.67;;;12.13;;
18316;SDS011;9284;52.298;21.164;2022-12-07T06:04:08;26.07;;;11.60;;
18316;SDS011;9284;52.298;21.164;2022-12-07T06:06:36;28.27;;;12.07;;
18316;SDS011;9284;52.298;21.164;2022-12-07T06:09:05;24.33;;;11.03;;
18316;SDS011;9284;52.298;21.164;2022-12-07T06:11:33;24.17;;;10.57;;
18316;SDS011;9284;52.298;21.164;2022-12-07T06:14:19;19.13;;;9.50;;
18316;SDS011;9284;52.298;21.164;2022-12-07T06:16:49;19.83;;;9.53;;
18316;SDS011;9284;52.298;21.164;2022-12-07T06:19:17;21.60;;;10.87;;
18316;SDS011;9284;52.298;21.164;2022-12-07T06:21:45;24.50;;;10.93;;
18316;SDS011;9284;52.298;21.164;2022-12-07T06:24:14;21.97;;;9.93;;
18316;SDS011;9284;52.298;21.164;2022-12-07T06:26:44;23.73;;;10.70;;
18316;SDS011;9284;52.298;21.164;2022-12-07T06:29:12;19.70;;;10.07;;
18316;SDS011;9284;52.298;21.164;2022-12-07T06:31:41;23.23;;;9.53;;
18316;SDS011;9284;52.298;21.164;2022-12-07T06:34:11;29.70;;;11.60;;
18316;SDS011;9284;52.298;21.164;2022-12-07T06:36:41;29.67;;;12.17;;
18316;SDS011;9284;52.298;21.164;2022-12-07T06:39:10;30.53;;;12.87;;
18316;SDS011;9284;52.298;21.164;2022-12-07T06:41:38;27.00;;;11.50;;
18316;SDS011;9284;52.298;21.164;2022-12-07T06:44:06;24.53;;;10.53;;
18316;SDS011;9284;52.298;21.164;2022-12-07T06:46:35;26.60;;;10.37;;
18316;SDS011;9284;52.298;21.164;2022-12-07T06:49:03;21.10;;;10.33;;
18316;SDS011;9284;52.298;21.164;2022-12-07T06:51:33;20.60;;;9.27;;
18316;SDS011;9284;52.298;21.164;2022-12-07T06:54:03;18.00;;;8.97;;
18316;SDS011;9284;52.298;21.164;2022-12-07T06:56:31;14.40;;;8.00;;
18316;SDS011;9284;52.298;21.164;2022-12-07T06:58:59;14.43;;;7.27;;
18316;SDS011;9284;52.298;21.164;2022-12-07T07:01:27;15.67;;;7.27;;
18316;SDS011;9284;52.298;21.164;2022-12-07T07:03:56;14.43;;;7.40;;
18316;SDS011;9284;52.298;21.164;2022-12-07T07:06:24;17.27;;;7.80;;
18316;SDS011;9284;52.298;21.164;2022-12-07T07:08:54;13.30;;;7.27;;
18316;SDS011;9284;52.298;21.164;2022-12-07T07:11:22;16.13;;;8.70;;
18316;SDS011;9284;52.298;21.164;2022-12-07T07:13:50;17.17;;;8.50;;
18316;SDS011;9284;52.298;21.164;2022-12-07T07:16:19;21.17;;;9.57;;
18316;SDS011;9284;52.298;21.164;2022-12-07T07:18:47;16.30;;;8.43;;
18316;SDS011;9284;52.298;21.164;2022-12-07T07:21:15;16.13;;;8.27;;
18316;SDS011;9284;52.298;21.164;2022-12-07T07:23:44;15.70;;;8.40;;
18316;SDS011;9284;52.298;21.164;2022-12-07T07:26:13;16.67;;;8.00;;
18316;SDS011;9284;52.298;21.164;2022-12-07T07:28:48;15.50;;;7.83;;
18316;SDS011;9284;52.298;21.164;2022-12-07T07:31:16;17.03;;;8.77;;
18316;SDS011;9284;52.298;21.164;2022-12-07T07:33:45;15.70;;;7.90;;
18316;SDS011;9284;52.298;21.164;2022-12-07T07:36:13;19.93;;;8.50;;
18316;SDS011;9284;52.298;21.164;2022-12-07T07:38:41;19.87;;;9.50;;
18316;SDS011;9284;52.298;21.164;2022-12-07T07:41:09;18.67;;;8.47;;
18316;SDS011;9284;52.298;21.164;2022-12-07T07:43:39;17.07;;;8.53;;
18316;SDS011;9284;52.298;21.164;2022-12-07T07:46:07;20.93;;;9.13;;
18316;SDS011;9284;52.298;21.164;2022-12-07T07:48:35;17.00;;;8.13;;
18316;SDS011;9284;52.298;21.164;2022-12-07T07:51:04;20.27;;;9.40;;
18316;SDS011;9284;52.298;21.164;2022-12-07T07:53:34;20.40;;;9.20;;
18316;SDS011;9284;52.298;21.164;2022-12-07T07:56:02;18.87;;;8.70;;
18316;SDS011;9284;52.298;21.164;2022-12-07T07:58:30;16.80;;;8.63;;
18316;SDS011;9284;52.298;21.164;2022-12-07T08:01:04;15.40;;;8.20;;
18316;SDS011;9284;52.298;21.164;2022-12-07T08:03:33;15.97;;;7.90;;
18316;SDS011;9284;52.298;21.164;2022-12-07T08:06:02;16.50;;;7.47;;
18316;SDS011;9284;52.298;21.164;2022-12-07T08:08:31;14.27;;;7.90;;
18316;SDS011;9284;52.298;21.164;2022-12-07T08:10:59;14.43;;;7.97;;
18316;SDS011;9284;52.298;21.164;2022-12-07T08:13:28;16.63;;;7.40;;
18316;SDS011;9284;52.298;21.164;2022-12-07T08:15:57;15.07;;;8.07;;
18316;SDS011;9284;52.298;21.164;2022-12-07T08:18:27;20.40;;;8.53;;
18316;SDS011;9284;52.298;21.164;2022-12-07T08:20:58;19.73;;;9.13;;
18316;SDS011;9284;52.298;21.164;2022-12-07T08:23:27;18.03;;;9.07;;
18316;SDS011;9284;52.298;21.164;2022-12-07T08:26:05;19.63;;;9.60;;
18316;SDS011;9284;52.298;21.164;2022-12-07T08:28:35;18.60;;;9.43;;
18316;SDS011;9284;52.298;21.164;2022-12-07T08:31:04;19.80;;;10.00;;
18316;SDS011;9284;52.298;21.164;2022-12-07T08:33:36;20.40;;;10.50;;
18316;SDS011;9284;52.298;21.164;2022-12-07T08:36:06;22.63;;;8.87;;
18316;SDS011;9284;52.298;21.164;2022-12-07T08:38:36;21.83;;;9.53;;
18316;SDS011;9284;52.298;21.164;2022-12-07T08:41:06;22.80;;;10.90;;
18316;SDS011;9284;52.298;21.164;2022-12-07T08:43:34;22.97;;;11.13;;
18316;SDS011;9284;52.298;21.164;2022-12-07T08:46:05;27.93;;;11.13;;
18316;SDS011;9284;52.298;21.164;2022-12-07T08:48:39;32.27;;;12.30;;
18316;SDS011;9284;52.298;21.164;2022-12-07T08:51:11;37.40;;;13.60;;
18316;SDS011;9284;52.298;21.164;2022-12-07T08:53:40;35.30;;;13.83;;
18316;SDS011;9284;52.298;21.164;2022-12-07T08:56:10;33.07;;;13.27;;
18316;SDS011;9284;52.298;21.164;2022-12-07T08:58:38;31.47;;;12.90;;
18316;SDS011;9284;52.298;21.164;2022-12-07T09:01:07;36.43;;;14.73;;
18316;SDS011;9284;52.298;21.164;2022-12-07T09:03:36;40.70;;;16.23;;
18316;SDS011;9284;52.298;21.164;2022-12-07T09:06:06;41.47;;;16.00;;
18316;SDS011;9284;52.298;21.164;2022-12-07T09:08:36;39.00;;;16.57;;
18316;SDS011;9284;52.298;21.164;2022-12-07T09:11:08;44.30;;;17.43;;
18316;SDS011;9284;52.298;21.164;2022-12-07T09:13:36;37.27;;;15.57;;
18316;SDS011;9284;52.298;21.164;2022-12-07T09:16:05;37.33;;;15.17;;
18316;SDS011;9284;52.298;21.164;2022-12-07T09:18:33;44.53;;;18.43;;
18316;SDS011;9284;52.298;21.164;2022-12-07T09:21:01;41.23;;;17.57;;
18316;SDS011;9284;52.298;21.164;2022-12-07T09:23:31;45.33;;;17.90;;
18316;SDS011;9284;52.298;21.164;2022-12-07T09:25:59;41.40;;;17.60;;
18316;SDS011;9284;52.298;21.164;2022-12-07T09:28:35;45.57;;;19.37;;
18316;SDS011;9284;52.298;21.164;2022-12-07T09:31:04;34.73;;;15.67;;
18316;SDS011;9284;52.298;21.164;2022-12-07T09:33:53;41.83;;;15.90;;
18316;SDS011;9284;52.298;21.164;2022-12-07T09:36:22;36.80;;;16.30;;
18316;SDS011;9284;52.298;21.164;2022-12-07T09:38:52;43.50;;;16.53;;
18316;SDS011;9284;52.298;21.164;2022-12-07T09:41:20;39.13;;;15.77;;
18316;SDS011;9284;52.298;21.164;2022-12-07T09:43:49;36.40;;;15.00;;
18316;SDS011;9284;52.298;21.164;2022-12-07T09:46:19;44.40;;;16.50;;
18316;SDS011;9284;52.298;21.164;2022-12-07T09:48:48;32.50;;;13.63;;
18316;SDS011;9284;52.298;21.164;2022-12-07T09:51:19;33.47;;;14.60;;
18316;SDS011;9284;52.298;21.164;2022-12-07T09:53:53;38.70;;;15.87;;
18316;SDS011;9284;52.298;21.164;2022-12-07T09:56:23;38.67;;;14.20;;
18316;SDS011;9284;52.298;21.164;2022-12-07T09:58:56;33.47;;;14.33;;
18316;SDS011;9284;52.298;21.164;2022-12-07T10:01:28;31.30;;;13.60;;
18316;SDS011;9284;52.298;21.164;2022-12-07T10:04:02;27.83;;;11.93;;
18316;SDS011;9284;52.298;21.164;2022-12-07T10:06:39;35.23;;;13.73;;
18316;SDS011;9284;52.298;21.164;2022-12-07T10:09:11;32.00;;;13.03;;
18316;SDS011;9284;52.298;21.164;2022-12-07T10:11:59;29.80;;;12.03;;
18316;SDS011;9284;52.298;21.164;2022-12-07T10:14:30;30.03;;;11.30;;
18316;SDS011;9284;52.298;21.164;2022-12-07T10:17:31;27.83;;;12.27;;
18316;SDS011;9284;52.298;21.164;2022-12-07T10:20:10;33.97;;;13.17;;
18316;SDS011;9284;52.298;21.164;2022-12-07T10:22:53;28.93;;;11.53;;
18316;SDS011;9284;52.298;21.164;2022-12-07T10:25:29;29.20;;;12.27;;
18316;SDS011;9284;52.298;21.164;2022-12-07T10:28:00;36.53;;;14.17;;
18316;SDS011;9284;52.298;21.164;2022-12-07T10:30:47;33.20;;;12.67;;
18316;SDS011;9284;52.298;21.164;2022-12-07T10:33:27;44.33;;;14.97;;
18316;SDS011;9284;52.298;21.164;2022-12-07T10:35:57;38.70;;;14.23;;
18316;SDS011;9284;52.298;21.164;2022-12-07T10:38:27;33.90;;;12.70;;
18316;SDS011;9284;52.298;21.164;2022-12-07T10:41:06;31.83;;;11.60;;
18316;SDS011;9284;52.298;21.164;2022-12-07T10:43:35;25.67;;;10.90;;
18316;SDS011;9284;52.298;21.164;2022-12-07T10:49:00;27.73;;;10.90;;
18316;SDS011;9284;52.298;21.164;2022-12-07T10:51:38;25.63;;;10.43;;
18316;SDS011;9284;52.298;21.164;2022-12-07T10:54:15;26.33;;;10.33;;
18316;SDS011;9284;52.298;21.164;2022-12-07T10:57:02;29.83;;;11.17;;
18316;SDS011;9284;52.298;21.164;2022-12-07T10:59:47;26.80;;;10.73;;
18316;SDS011;9284;52.298;21.164;2022-12-07T11:02:30;28.43;;;10.23;;
18316;SDS011;9284;52.298;21.164;2022-12-07T11:05:17;24.93;;;11.17;;
18316;SDS011;9284;52.298;21.164;2022-12-07T11:07:53;21.67;;;10.73;;
18316;SDS011;9284;52.298;21.164;2022-12-07T11:10:29;25.73;;;10.77;;
18316;SDS011;9284;52.298;21.164;2022-12-07T11:13:14;32.87;;;12.87;;
18316;SDS011;9284;52.298;21.164;2022-12-07T11:19:06;29.63;;;12.37;;
18316;SDS011;9284;52.298;21.164;2022-12-07T11:21:48;29.80;;;12.53;;
18316;SDS011;9284;52.298;21.164;2022-12-07T11:24:24;25.90;;;12.70;;
18316;SDS011;9284;52.298;21.164;2022-12-07T11:27:04;25.90;;;12.30;;
18316;SDS011;9284;52.298;21.164;2022-12-07T11:29:47;27.93;;;12.90;;
18316;SDS011;9284;52.298;21.164;2022-12-07T11:32:26;21.03;;;10.63;;
18316;SDS011;9284;52.298;21.164;2022-12-07T11:35:11;26.60;;;11.93;;
18316;SDS011;9284;52.298;21.164;2022-12-07T11:37:50;21.30;;;10.37;;
18316;SDS011;9284;52.298;21.164;2022-12-07T11:40:25;23.27;;;10.97;;
18316;SDS011;9284;52.298;21.164;2022-12-07T11:42:57;24.67;;;11.10;;
18316;SDS011;9284;52.298;21.164;2022-12-07T11:45:32;21.17;;;10.73;;
18316;SDS011;9284;52.298;21.164;2022-12-07T11:48:02;23.73;;;11.73;;
18316;SDS011;9284;52.298;21.164;2022-12-07T11:50:34;25.40;;;12.07;;
18316;SDS011;9284;52.298;21.164;2022-12-07T11:53:10;25.90;;;11.80;;
18316;SDS011;9284;52.298;21.164;2022-12-07T11:55:46;22.27;;;10.83;;
18316;SDS011;9284;52.298;21.164;2022-12-07T11:58:22;22.87;;;11.57;;
18316;SDS011;9284;52.298;21.164;2022-12-07T12:01:16;20.80;;;11.17;;
18316;SDS011;9284;52.298;21.164;2022-12-07T12:03:56;24.23;;;11.23;;
18316;SDS011;9284;52.298;21.164;2022-12-07T12:06:30;21.27;;;11.27;;
18316;SDS011;9284;52.298;21.164;2022-12-07T12:09:02;25.20;;;11.07;;
18316;SDS011;9284;52.298;21.164;2022-12-07T12:12:13;20.80;;;11.57;;
18316;SDS011;9284;52.298;21.164;2022-12-07T12:15:24;22.77;;;11.30;;
18316;SDS011;9284;52.298;21.164;2022-12-07T12:18:09;25.33;;;11.97;;
18316;SDS011;9284;52.298;21.164;2022-12-07T12:21:00;23.23;;;10.70;;
18316;SDS011;9284;52.298;21.164;2022-12-07T12:23:35;20.73;;;10.47;;
18316;SDS011;9284;52.298;21.164;2022-12-07T12:26:08;22.23;;;12.33;;
18316;SDS011;9284;52.298;21.164;2022-12-07T12:28:49;20.30;;;10.67;;
18316;SDS011;9284;52.298;21.164;2022-12-07T12:34:32;20.40;;;10.53;;
18316;SDS011;9284;52.298;21.164;2022-12-07T12:49:33;25.40;;;10.60;;
18316;SDS011;9284;52.298;21.164;2022-12-07T12:58:46;22.13;;;10.60;;
18316;SDS011;9284;52.298;21.164;2022-12-07T13:07:06;22.77;;;11.17;;
18316;SDS011;9284;52.298;21.164;2022-12-07T13:09:42;23.10;;;11.40;;
18316;SDS011;9284;52.298;21.164;2022-12-07T13:12:14;22.33;;;10.67;;
18316;SDS011;9284;52.298;21.164;2022-12-07T13:14:52;19.33;;;10.23;;
18316;SDS011;9284;52.298;21.164;2022-12-07T13:20:44;19.90;;;10.17;;
18316;SDS011;9284;52.298;21.164;2022-12-07T13:23:18;19.97;;;10.13;;
18316;SDS011;9284;52.298;21.164;2022-12-07T13:25:51;19.57;;;10.17;;
18316;SDS011;9284;52.298;21.164;2022-12-07T13:28:23;19.77;;;9.83;;
18316;SDS011;9284;52.298;21.164;2022-12-07T13:31:04;19.27;;;9.77;;
18316;SDS011;9284;52.298;21.164;2022-12-07T13:33:42;21.07;;;10.30;;
18316;SDS011;9284;52.298;21.164;2022-12-07T13:36:14;18.40;;;9.27;;
18316;SDS011;9284;52.298;21.164;2022-12-07T13:39:11;16.67;;;8.67;;
18316;SDS011;9284;52.298;21.164;2022-12-07T13:41:49;24.80;;;9.73;;
18316;SDS011;9284;52.298;21.164;2022-12-07T13:44:18;21.30;;;10.17;;
18316;SDS011;9284;52.298;21.164;2022-12-07T13:46:55;19.70;;;9.20;;
18316;SDS011;9284;52.298;21.164;2022-12-07T13:49:29;18.43;;;9.50;;
18316;SDS011;9284;52.298;21.164;2022-12-07T13:52:13;16.83;;;8.33;;
18316;SDS011;9284;52.298;21.164;2022-12-07T13:54:45;18.13;;;8.77;;
18316;SDS011;9284;52.298;21.164;2022-12-07T13:57:15;20.50;;;10.43;;
18316;SDS011;9284;52.298;21.164;2022-12-07T13:59:43;24.53;;;10.40;;
18316;SDS011;9284;52.298;21.164;2022-12-07T14:02:19;21.33;;;10.07;;
18316;SDS011;9284;52.298;21.164;2022-12-07T14:04:50;19.13;;;9.40;;
18316;SDS011;9284;52.298;21.164;2022-12-07T14:07:20;17.73;;;9.60;;
18316;SDS011;9284;52.298;21.164;2022-12-07T14:09:56;24.83;;;11.73;;
18316;SDS011;9284;52.298;21.164;2022-12-07T14:12:26;20.83;;;11.30;;
18316;SDS011;9284;52.298;21.164;2022-12-07T14:14:55;28.47;;;12.27;;
18316;SDS011;9284;52.298;21.164;2022-12-07T14:17:26;29.90;;;12.37;;
18316;SDS011;9284;52.298;21.164;2022-12-07T14:19:55;28.50;;;12.27;;
18316;SDS011;9284;52.298;21.164;2022-12-07T14:22:26;25.23;;;12.57;;
18316;SDS011;9284;52.298;21.164;2022-12-07T14:25:15;25.97;;;11.67;;
18316;SDS011;9284;52.298;21.164;2022-12-07T14:27:49;23.80;;;11.43;;
18316;SDS011;9284;52.298;21.164;2022-12-07T14:30:22;23.43;;;11.97;;
18316;SDS011;9284;52.298;21.164;2022-12-07T14:32:53;21.00;;;11.27;;
18316;SDS011;9284;52.298;21.164;2022-12-07T14:35:24;28.20;;;12.50;;
18316;SDS011;9284;52.298;21.164;2022-12-07T14:37:53;28.93;;;13.67;;
18316;SDS011;9284;52.298;21.164;2022-12-07T14:40:25;29.60;;;13.70;;
18316;SDS011;9284;52.298;21.164;2022-12-07T14:42:55;25.80;;;13.17;;
18316;SDS011;9284;52.298;21.164;2022-12-07T14:45:27;24.67;;;13.40;;
18316;SDS011;9284;52.298;21.164;2022-12-07T14:47:56;26.33;;;13.93;;
18316;SDS011;9284;52.298;21.164;2022-12-07T14:50:45;25.63;;;13.07;;
18316;SDS011;9284;52.298;21.164;2022-12-07T14:53:39;26.83;;;13.40;;
18316;SDS011;9284;52.298;21.164;2022-12-07T14:56:10;27.57;;;14.07;;
18316;SDS011;9284;52.298;21.164;2022-12-07T14:58:38;28.67;;;14.23;;
18316;SDS011;9284;52.298;21.164;2022-12-07T15:01:07;27.83;;;12.87;;
18316;SDS011;9284;52.298;21.164;2022-12-07T15:03:35;26.93;;;13.40;;
18316;SDS011;9284;52.298;21.164;2022-12-07T15:06:05;25.53;;;13.10;;
18316;SDS011;9284;52.298;21.164;2022-12-07T15:08:34;25.23;;;12.93;;
18316;SDS011;9284;52.298;21.164;2022-12-07T15:11:02;27.57;;;12.20;;
18316;SDS011;9284;52.298;21.164;2022-12-07T15:13:31;27.40;;;13.83;;
18316;SDS011;9284;52.298;21.164;2022-12-07T15:16:19;29.27;;;13.77;;
18316;SDS011;9284;52.298;21.164;2022-12-07T15:18:48;30.03;;;14.20;;
18316;SDS011;9284;52.298;21.164;2022-12-07T15:21:36;33.03;;;15.70;;
18316;SDS011;9284;52.298;21.164;2022-12-07T15:24:05;30.60;;;14.47;;
18316;SDS011;9284;52.298;21.164;2022-12-07T15:26:33;35.13;;;16.03;;
18316;SDS011;9284;52.298;21.164;2022-12-07T15:29:03;39.83;;;16.97;;
18316;SDS011;9284;52.298;21.164;2022-12-07T15:31:31;32.63;;;15.80;;
18316;SDS011;9284;52.298;21.164;2022-12-07T15:34:20;34.47;;;16.07;;
18316;SDS011;9284;52.298;21.164;2022-12-07T15:36:49;31.33;;;15.03;;
18316;SDS011;9284;52.298;21.164;2022-12-07T15:39:17;34.90;;;16.17;;
18316;SDS011;9284;52.298;21.164;2022-12-07T15:41:46;34.03;;;15.70;;
18316;SDS011;9284;52.298;21.164;2022-12-07T15:44:15;32.13;;;14.87;;
18316;SDS011;9284;52.298;21.164;2022-12-07T15:47:01;32.20;;;15.23;;
18316;SDS011;9284;52.298;21.164;2022-12-07T15:49:31;33.37;;;15.43;;
18316;SDS011;9284;52.298;21.164;2022-12-07T15:51:59;34.83;;;16.30;;
18316;SDS011;9284;52.298;21.164;2022-12-07T15:54:28;36.93;;;17.20;;
18316;SDS011;9284;52.298;21.164;2022-12-07T15:56:57;40.10;;;18.23;;
18316;SDS011;9284;52.298;21.164;2022-12-07T15:59:27;42.47;;;18.73;;
18316;SDS011;9284;52.298;21.164;2022-12-07T16:01:55;41.77;;;18.37;;
18316;SDS011;9284;52.298;21.164;2022-12-07T16:04:24;43.03;;;18.93;;
18316;SDS011;9284;52.298;21.164;2022-12-07T16:06:54;37.23;;;16.47;;
18316;SDS011;9284;52.298;21.164;2022-12-07T16:09:22;33.97;;;16.20;;
18316;SDS011;9284;52.298;21.164;2022-12-07T16:11:51;37.57;;;16.53;;
18316;SDS011;9284;52.298;21.164;2022-12-07T16:14:20;37.83;;;16.70;;
18316;SDS011;9284;52.298;21.164;2022-12-07T16:16:50;31.87;;;16.33;;
18316;SDS011;9284;52.298;21.164;2022-12-07T16:19:18;37.57;;;17.33;;
18316;SDS011;9284;52.298;21.164;2022-12-07T16:21:46;38.30;;;17.27;;
18316;SDS011;9284;52.298;21.164;2022-12-07T16:24:14;35.57;;;16.57;;
18316;SDS011;9284;52.298;21.164;2022-12-07T16:26:43;32.37;;;16.10;;
18316;SDS011;9284;52.298;21.164;2022-12-07T16:29:16;36.67;;;16.97;;
18316;SDS011;9284;52.298;21.164;2022-12-07T16:31:45;32.40;;;16.70;;
18316;SDS011;9284;52.298;21.164;2022-12-07T16:34:15;31.70;;;16.37;;
18316;SDS011;9284;52.298;21.164;2022-12-07T16:36:44;34.33;;;16.43;;
18316;SDS011;9284;52.298;21.164;2022-12-07T16:39:30;31.90;;;14.47;;
18316;SDS011;9284;52.298;21.164;2022-12-07T16:41:58;34.87;;;17.60;;
18316;SDS011;9284;52.298;21.164;2022-12-07T16:44:27;33.77;;;16.07;;
18316;SDS011;9284;52.298;21.164;2022-12-07T16:46:57;35.93;;;16.47;;
18316;SDS011;9284;52.298;21.164;2022-12-07T16:49:26;41.80;;;16.57;;
18316;SDS011;9284;52.298;21.164;2022-12-07T16:51:55;35.83;;;16.87;;
18316;SDS011;9284;52.298;21.164;2022-12-07T16:54:43;35.30;;;16.13;;
18316;SDS011;9284;52.298;21.164;2022-12-07T16:57:11;35.87;;;16.10;;
18316;SDS011;9284;52.298;21.164;2022-12-07T16:59:47;37.77;;;16.23;;
18316;SDS011;9284;52.298;21.164;2022-12-07T17:02:15;32.40;;;16.07;;
18316;SDS011;9284;52.298;21.164;2022-12-07T17:04:45;35.00;;;17.33;;
18316;SDS011;9284;52.298;21.164;2022-12-07T17:07:13;37.77;;;16.53;;
18316;SDS011;9284;52.298;21.164;2022-12-07T17:09:41;38.13;;;17.77;;
18316;SDS011;9284;52.298;21.164;2022-12-07T17:12:10;32.50;;;16.10;;
18316;SDS011;9284;52.298;21.164;2022-12-07T17:14:38;42.83;;;19.17;;
18316;SDS011;9284;52.298;21.164;2022-12-07T17:17:24;39.33;;;17.50;;
18316;SDS011;9284;52.298;21.164;2022-12-07T17:19:54;35.17;;;17.10;;
18316;SDS011;9284;52.298;21.164;2022-12-07T17:22:22;36.53;;;17.73;;
18316;SDS011;9284;52.298;21.164;2022-12-07T17:24:50;41.53;;;18.80;;
18316;SDS011;9284;52.298;21.164;2022-12-07T17:27:19;37.13;;;17.20;;
18316;SDS011;9284;52.298;21.164;2022-12-07T17:29:47;38.67;;;18.50;;
18316;SDS011;9284;52.298;21.164;2022-12-07T17:32:15;37.70;;;17.57;;
18316;SDS011;9284;52.298;21.164;2022-12-07T17:34:43;35.63;;;16.90;;
18316;SDS011;9284;52.298;21.164;2022-12-07T17:37:13;34.90;;;16.63;;
18316;SDS011;9284;52.298;21.164;2022-12-07T17:39:41;36.83;;;17.20;;
18316;SDS011;9284;52.298;21.164;2022-12-07T17:42:09;33.23;;;16.27;;
18316;SDS011;9284;52.298;21.164;2022-12-07T17:44:55;40.50;;;17.53;;
18316;SDS011;9284;52.298;21.164;2022-12-07T17:47:23;36.40;;;17.60;;
18316;SDS011;9284;52.298;21.164;2022-12-07T17:49:51;36.73;;;17.17;;
18316;SDS011;9284;52.298;21.164;2022-12-07T17:52:21;40.20;;;17.27;;
18316;SDS011;9284;52.298;21.164;2022-12-07T17:55:07;32.87;;;16.03;;
18316;SDS011;9284;52.298;21.164;2022-12-07T17:57:36;35.27;;;16.03;;
18316;SDS011;9284;52.298;21.164;2022-12-07T18:00:04;34.87;;;17.20;;
18316;SDS011;9284;52.298;21.164;2022-12-07T18:02:37;34.07;;;15.53;;
18316;SDS011;9284;52.298;21.164;2022-12-07T18:05:06;31.03;;;15.17;;
18316;SDS011;9284;52.298;21.164;2022-12-07T18:07:36;36.23;;;17.37;;
18316;SDS011;9284;52.298;21.164;2022-12-07T18:10:05;32.13;;;15.77;;
18316;SDS011;9284;52.298;21.164;2022-12-07T18:12:34;33.03;;;15.63;;
18316;SDS011;9284;52.298;21.164;2022-12-07T18:15:03;29.13;;;14.60;;
18316;SDS011;9284;52.298;21.164;2022-12-07T18:17:32;30.33;;;15.23;;
18316;SDS011;9284;52.298;21.164;2022-12-07T18:20:00;30.07;;;14.57;;
18316;SDS011;9284;52.298;21.164;2022-12-07T18:22:28;29.60;;;15.70;;
18316;SDS011;9284;52.298;21.164;2022-12-07T18:24:58;32.37;;;16.60;;
18316;SDS011;9284;52.298;21.164;2022-12-07T18:27:27;30.37;;;16.10;;
18316;SDS011;9284;52.298;21.164;2022-12-07T18:29:55;35.77;;;16.77;;
18316;SDS011;9284;52.298;21.164;2022-12-07T18:32:25;35.07;;;17.13;;
18316;SDS011;9284;52.298;21.164;2022-12-07T18:34:56;35.53;;;18.37;;
18316;SDS011;9284;52.298;21.164;2022-12-07T18:37:24;28.13;;;14.17;;
18316;SDS011;9284;52.298;21.164;2022-12-07T18:39:53;33.63;;;16.73;;
18316;SDS011;9284;52.298;21.164;2022-12-07T18:42:24;40.13;;;19.63;;
18316;SDS011;9284;52.298;21.164;2022-12-07T18:44:53;38.63;;;19.30;;
18316;SDS011;9284;52.298;21.164;2022-12-07T18:47:21;27.67;;;14.20;;
18316;SDS011;9284;52.298;21.164;2022-12-07T18:49:49;28.17;;;14.03;;
18316;SDS011;9284;52.298;21.164;2022-12-07T18:52:17;24.13;;;12.80;;
18316;SDS011;9284;52.298;21.164;2022-12-07T18:54:45;22.80;;;13.20;;
18316;SDS011;9284;52.298;21.164;2022-12-07T18:57:14;22.83;;;11.47;;
18316;SDS011;9284;52.298;21.164;2022-12-07T18:59:43;29.30;;;14.90;;
18316;SDS011;9284;52.298;21.164;2022-12-07T19:02:15;26.10;;;13.10;;
18316;SDS011;9284;52.298;21.164;2022-12-07T19:04:45;23.50;;;13.10;;
18316;SDS011;9284;52.298;21.164;2022-12-07T19:07:13;26.07;;;12.67;;
18316;SDS011;9284;52.298;21.164;2022-12-07T19:09:42;28.40;;;13.60;;
18316;SDS011;9284;52.298;21.164;2022-12-07T19:12:11;24.27;;;11.97;;
18316;SDS011;9284;52.298;21.164;2022-12-07T19:14:40;22.67;;;12.83;;
18316;SDS011;9284;52.298;21.164;2022-12-07T19:17:10;23.00;;;11.70;;
18316;SDS011;9284;52.298;21.164;2022-12-07T19:19:40;24.83;;;12.97;;
18316;SDS011;9284;52.298;21.164;2022-12-07T19:22:10;28.57;;;14.00;;
18316;SDS011;9284;52.298;21.164;2022-12-07T19:24:39;25.97;;;14.57;;
18316;SDS011;9284;52.298;21.164;2022-12-07T19:27:09;30.63;;;16.00;;
18316;SDS011;9284;52.298;21.164;2022-12-07T19:29:37;28.77;;;14.07;;
18316;SDS011;9284;52.298;21.164;2022-12-07T19:32:06;30.27;;;14.83;;
18316;SDS011;9284;52.298;21.164;2022-12-07T19:34:37;31.40;;;14.80;;
18316;SDS011;9284;52.298;21.164;2022-12-07T19:37:06;30.30;;;15.77;;